Airfield :
LOGIN :

Register | Disclaimer

   EN    FR    IT 

 










Legend :    VFR   Marginal VFR   IFR   Intensive IFR   Very Intensive IFR
Visi :
Ceiling :
>= 8 km
>= 3000ft
5 to 8 km
1000 to 3000 ft
1500m to 5 km
500 to 1000 ft
800 to 1500m
200 to 500 ft
< 800m
< 200 ft
Symbols :   Thunderstorms  Fog  Heavy snow  Heavy precipitations  Wind > 20 kt
SIGMETs :     Misc.  Thunderstorms  Icing  Turbulence  Mountain Waves  Volcanic Ashes






- Airport Elevation : 70 ft
- IATA code : LEI


LEAM - Almeria

CURRENT METAR :
  • 080830Z 02004KT 340V080 9999 FEW090 15/11 Q1008

EXPIRED METARs :
  • 080800Z VRB02KT 9999 BKN090 14/11 Q1008
  • 080730Z 36003KT 9999 BKN090 14/11 Q1008
  • 080700Z 35006KT 9999 FEW070 BKN080 14/11 Q1008
  • 080630Z 33005KT 9999 FEW070 BKN090 14/11 Q1008
  • 080600Z 34003KT CAVOK 14/11 Q1008

TAF TAF LEAM
Valid from the 08 at 06:00 until the 09 at 06:00 UTC


080500Z 0806/0906 VRB02KT 9999 FEW020 TX20/0814Z TN13/0806Z
PROB30
TEMPO 0806/0812 4000 RA BR BKN010
BECMG 0813/0816 21010KT



MET'MAP, your aeronautical weather chart ! - Copyright ORBIFLY December 2007 - Disclaimer

ORBIFLY MET'MAP TEAM :

Programming & Development : Alexandra Zaïnal
Original concept : Baudouin d'Aumeries
Technical & hardware support : Manuel Goepfert
Assistance : Marc-Olivier Méhu




SOURCES & CREDITS :

   NOAA